Time;durP1;ratioP1;P1;durP2;ratioP2;P2;SDS_P1;SDS_P2;PMS_P1;PMS_P2;Temp;Humidity;BMP_temperature;BMP_pressure;BME280_temperature;BME280_humidity;BME280_pressure;Samples;Min_cycle;Max_cycle;Signal;HPM_P1;HPM_P2
2023/11/23 00:00:23;;;;;;;7.97;6.30;;;6.30;99.90;;;;;;5076414;28;20529;-54
2023/11/23 00:02:49;;;;;;;8.35;6.22;;;6.30;99.90;;;;;;5111915;28;20028;-53
2023/11/23 00:05:14;;;;;;;7.43;5.47;;;6.20;99.90;;;;;;5112432;28;20036;-54
2023/11/23 00:07:40;;;;;;;11.00;8.00;;;6.10;99.90;;;;;;5112314;28;20032;-55
2023/11/23 00:10:07;;;;;;;13.85;8.73;;;6.30;99.90;;;;;;5112302;28;20409;-54
2023/11/23 00:12:33;;;;;;;9.68;7.55;;;6.50;99.90;;;;;;5112308;28;20450;-54
2023/11/23 00:15:00;;;;;;;10.50;7.22;;;6.50;99.90;;;;;;5112268;28;20383;-54
2023/11/23 00:17:26;;;;;;;10.85;7.15;;;6.30;99.90;;;;;;5112447;28;20069;-54
2023/11/23 00:19:51;;;;;;;10.55;6.90;;;6.20;99.90;;;;;;5109948;28;20028;-54
2023/11/23 00:22:17;;;;;;;10.32;7.97;;;6.20;99.90;;;;;;5100867;28;20027;-54
2023/11/23 00:24:43;;;;;;;10.13;7.18;;;6.40;99.90;;;;;;5091991;28;20103;-54
2023/11/23 00:27:09;;;;;;;9.88;8.02;;;6.30;99.90;;;;;;5055988;28;20079;-54
2023/11/23 00:29:34;;;;;;;9.48;7.43;;;6.30;99.90;;;;;;5091847;28;20031;-54
2023/11/23 00:32:00;;;;;;;10.38;7.90;;;6.40;99.90;;;;;;5092066;28;20032;-54
2023/11/23 00:34:26;;;;;;;11.18;7.85;;;6.50;99.90;;;;;;5091965;28;20032;-54
2023/11/23 00:36:51;;;;;;;9.35;7.45;;;6.60;99.90;;;;;;5092257;28;20372;-55
2023/11/23 00:39:18;;;;;;;9.30;7.53;;;6.50;99.90;;;;;;5091718;28;20075;-54
2023/11/23 00:41:43;;;;;;;9.18;7.97;;;6.50;99.90;;;;;;5091981;28;20055;-55
2023/11/23 00:44:10;;;;;;;10.77;8.45;;;;;;;;;;5076826;28;20498;-55
2023/11/23 00:46:36;;;;;;;9.55;7.72;;;;;;;;;;5071669;28;20603;-54
2023/11/23 00:49:03;;;;;;;10.52;7.28;;;6.40;99.90;;;;;;5036057;28;20115;-55
2023/11/23 00:51:29;;;;;;;10.20;7.75;;;6.60;99.90;;;;;;5071423;28;20487;-55
2023/11/23 00:53:55;;;;;;;9.65;7.65;;;6.70;99.90;;;;;;5071580;28;20060;-55
2023/11/23 00:56:22;;;;;;;9.52;7.00;;;6.70;99.90;;;;;;5071254;28;20392;-56
2023/11/23 00:58:48;;;;;;;10.25;8.00;;;6.60;99.90;;;;;;5071505;28;20047;-55
2023/11/23 01:01:17;;;;;;;9.80;8.20;;;6.60;99.90;;;;;;5071216;28;20040;-55
2023/11/23 01:03:43;;;;;;;9.38;8.00;;;6.50;99.90;;;;;;5071355;28;20025;-55
2023/11/23 01:06:09;;;;;;;10.95;7.22;;;6.60;99.90;;;;;;5071590;28;20039;-55
2023/11/23 01:08:34;;;;;;;13.10;8.00;;;6.60;99.90;;;;;;5071636;28;20036;-55
2023/11/23 01:11:01;;;;;;;11.45;8.23;;;6.70;99.90;;;;;;5071333;28;20119;-54
2023/11/23 01:13:27;;;;;;;10.63;7.93;;;6.80;99.90;;;;;;5072185;28;20045;-55
2023/11/23 01:15:53;;;;;;;11.02;8.00;;;6.70;99.90;;;;;;5075001;28;20106;-55
2023/11/23 01:18:19;;;;;;;10.63;8.00;;;6.70;99.90;;;;;;5075050;28;20468;-55
2023/11/23 01:20:45;;;;;;;11.45;8.75;;;;;;;;;;5074784;28;20060;-56
2023/11/23 01:23:11;;;;;;;12.38;9.07;;;6.40;99.90;;;;;;5074713;28;20032;-55
2023/11/23 01:25:38;;;;;;;12.77;9.38;;;;;;;;;;5075228;28;20463;-54
2023/11/23 01:28:04;;;;;;;11.32;8.30;;;;;;;;;;5056902;28;20075;-54
2023/11/23 01:30:30;;;;;;;10.85;8.45;;;6.40;99.90;;;;;;5074650;28;20515;-54
2023/11/23 01:32:56;;;;;;;10.80;8.48;;;6.40;99.90;;;;;;5074421;28;20029;-55
2023/11/23 01:35:22;;;;;;;10.30;7.93;;;6.40;99.90;;;;;;5055738;28;20064;-55
2023/11/23 01:37:48;;;;;;;12.48;9.50;;;6.20;99.90;;;;;;5074808;28;20020;-54
2023/11/23 01:40:15;;;;;;;14.15;9.00;;;6.30;99.90;;;;;;5074569;28;20055;-55
2023/11/23 01:42:41;;;;;;;12.35;8.70;;;6.30;99.90;;;;;;5076937;28;20033;-55
2023/11/23 01:45:07;;;;;;;13.57;8.75;;;6.40;99.90;;;;;;5094612;28;20031;-56
2023/11/23 01:47:46;;;;;;;10.15;6.35;;;6.50;99.90;;;;;;5095021;28;20363;-55
2023/11/23 01:50:14;;;;;;;11.63;8.93;;;6.30;99.90;;;;;;5094899;28;20024;-55
2023/11/23 01:52:40;;;;;;;12.40;7.90;;;;;;;;;;5094580;28;20023;-54
2023/11/23 01:55:07;;;;;;;12.75;9.15;;;;;;;;;;5094544;28;20554;-54
2023/11/23 01:57:36;;;;;;;14.95;10.40;;;;;;;;;;5093441;28;20028;-55
2023/11/23 02:00:03;;;;;;;13.80;8.23;;;;;;;;;;5094578;28;20126;-54
2023/11/23 02:02:29;;;;;;;12.27;9.05;;;6.00;99.90;;;;;;5094555;28;20110;-54
2023/11/23 02:04:58;;;;;;;15.43;10.02;;;5.90;99.90;;;;;;5094485;28;20028;-55
2023/11/23 02:07:25;;;;;;;12.35;9.77;;;6.00;99.90;;;;;;5094266;28;20024;-54
2023/11/23 02:09:51;;;;;;;14.68;10.57;;;6.10;99.90;;;;;;5094599;28;20030;-55
2023/11/23 02:12:18;;;;;;;13.07;10.60;;;6.20;99.90;;;;;;5094447;28;20099;-55
2023/11/23 02:14:44;;;;;;;13.60;11.02;;;6.20;99.90;;;;;;5094175;28;20077;-54
2023/11/23 02:17:20;;;;;;;15.10;11.07;;;6.20;99.90;;;;;;5094155;28;20020;-55
2023/11/23 02:19:47;;;;;;;14.90;10.35;;;6.20;99.90;;;;;;5093980;28;20736;-54
2023/11/23 02:22:13;;;;;;;16.33;9.93;;;6.10;99.90;;;;;;5094048;28;20376;-55
2023/11/23 02:24:39;;;;;;;13.35;10.40;;;6.10;99.90;;;;;;5093762;28;20020;-54
2023/11/23 02:27:07;;;;;;;13.90;8.57;;;6.10;99.90;;;;;;5074742;28;20067;-54
2023/11/23 02:29:34;;;;;;;11.93;8.20;;;;;;;;;;5093808;28;20039;-54
2023/11/23 02:32:06;;;;;;;14.85;9.73;;;5.60;99.90;;;;;;5093916;28;20055;-54
2023/11/23 02:34:33;;;;;;;13.10;10.00;;;5.50;99.90;;;;;;5093621;28;20428;-54
2023/11/23 02:36:58;;;;;;;12.85;10.75;;;5.60;99.90;;;;;;5058016;28;20028;-54
2023/11/23 02:39:24;;;;;;;10.90;8.68;;;5.80;99.90;;;;;;5057772;28;20032;-54
2023/11/23 02:41:50;;;;;;;14.82;9.80;;;5.80;99.90;;;;;;5093633;28;20025;-54
2023/11/23 02:44:15;;;;;;;12.57;10.02;;;5.80;99.90;;;;;;5093537;28;20047;-53
2023/11/23 02:46:42;;;;;;;13.65;9.93;;;5.90;99.90;;;;;;5057945;28;20036;-53
2023/11/23 02:49:09;;;;;;;12.85;9.77;;;6.00;99.90;;;;;;5093447;28;20475;-54
2023/11/23 02:51:35;;;;;;;13.13;9.90;;;6.00;99.90;;;;;;5093504;28;20487;-54
2023/11/23 02:54:01;;;;;;;17.58;8.73;;;5.80;99.90;;;;;;5093364;28;20086;-53
2023/11/23 02:56:27;;;;;;;8.63;6.20;;;;;;;;;;5093537;28;20542;-54
2023/11/23 02:58:55;;;;;;;12.30;9.25;;;5.00;99.90;;;;;;5093683;28;20379;-53
2023/11/23 03:01:24;;;;;;;11.30;9.45;;;5.40;99.90;;;;;;5093028;28;20039;-54
2023/11/23 03:03:53;;;;;;;12.95;8.68;;;5.50;99.90;;;;;;5093574;28;20024;-54
2023/11/23 03:06:18;;;;;;;12.90;9.52;;;5.30;99.90;;;;;;5093128;28;20028;-55
2023/11/23 03:08:45;;;;;;;12.48;9.00;;;5.30;99.90;;;;;;5057431;28;20058;-54
2023/11/23 03:11:19;;;;;;;12.88;9.27;;;5.20;99.90;;;;;;5074840;28;20028;-54
2023/11/23 03:13:45;;;;;;;15.85;10.05;;;5.40;99.90;;;;;;5093339;28;20040;-54
2023/11/23 03:16:11;;;;;;;12.43;8.90;;;5.30;99.90;;;;;;5093306;28;20111;-53
2023/11/23 03:18:37;;;;;;;12.60;8.88;;;5.40;99.90;;;;;;5040731;28;20066;-54
2023/11/23 03:21:03;;;;;;;14.43;10.40;;;5.40;99.90;;;;;;5092825;28;20028;-54
2023/11/23 03:23:29;;;;;;;16.90;10.52;;;5.40;99.90;;;;;;5092899;28;20028;-54
2023/11/23 03:25:55;;;;;;;12.65;9.23;;;5.50;99.90;;;;;;5092677;28;20471;-54
2023/11/23 03:28:20;;;;;;;13.50;10.15;;;5.50;99.90;;;;;;5093055;28;20039;-54
2023/11/23 03:30:46;;;;;;;11.68;9.13;;;5.70;99.90;;;;;;5092640;28;20024;-54
2023/11/23 03:33:12;;;;;;;12.15;8.73;;;5.80;99.90;;;;;;5092660;28;20027;-54
2023/11/23 03:35:38;;;;;;;11.98;8.98;;;5.70;99.90;;;;;;5092897;28;20024;-54
2023/11/23 03:38:04;;;;;;;11.38;9.13;;;5.80;99.90;;;;;;5091881;28;20025;-54
2023/11/23 03:40:29;;;;;;;12.27;9.13;;;5.90;99.90;;;;;;5092598;28;20036;-55
2023/11/23 03:42:55;;;;;;;12.63;9.27;;;5.90;99.90;;;;;;5092276;28;20048;-55
2023/11/23 03:45:22;;;;;;;10.75;8.88;;;5.90;99.90;;;;;;5092635;28;20028;-55
2023/11/23 03:47:48;;;;;;;12.13;9.65;;;5.60;99.90;;;;;;5092712;28;20432;-54
2023/11/23 03:50:15;;;;;;;12.80;9.40;;;5.70;99.90;;;;;;5056663;28;20399;-55
2023/11/23 03:52:41;;;;;;;12.55;9.48;;;5.80;99.90;;;;;;5092224;28;20020;-54
2023/11/23 03:55:08;;;;;;;13.35;9.45;;;5.90;99.90;;;;;;5092164;28;20465;-55
2023/11/23 03:57:34;;;;;;;11.30;8.68;;;5.90;99.90;;;;;;5092159;28;20019;-55
2023/11/23 04:00:03;;;;;;;14.02;9.05;;;5.80;99.90;;;;;;5092213;28;20036;-54
2023/11/23 04:02:28;;;;;;;14.90;9.30;;;5.90;99.90;;;;;;5092352;28;20028;-54
2023/11/23 04:04:54;;;;;;;15.02;9.70;;;6.00;99.90;;;;;;5092232;28;20027;-54
2023/11/23 04:07:20;;;;;;;11.77;8.95;;;6.00;99.90;;;;;;5092101;28;20035;-54
2023/11/23 04:09:45;;;;;;;12.50;8.95;;;5.90;99.90;;;;;;5092098;28;20047;-54
2023/11/23 04:12:11;;;;;;;12.32;9.35;;;5.90;99.90;;;;;;5091998;28;20032;-54
2023/11/23 04:14:37;;;;;;;11.43;9.00;;;6.20;99.90;;;;;;5091980;28;20105;-54
2023/11/23 04:17:03;;;;;;;17.20;9.02;;;6.30;99.90;;;;;;5092108;28;20036;-54
2023/11/23 04:19:28;;;;;;;11.30;8.82;;;6.30;99.90;;;;;;5092027;28;20028;-54
2023/11/23 04:21:54;;;;;;;11.95;9.75;;;6.50;99.90;;;;;;5091992;28;20020;-55
2023/11/23 04:24:20;;;;;;;11.57;9.68;;;6.60;99.90;;;;;;5091913;28;20028;-54
2023/11/23 04:26:46;;;;;;;10.32;8.25;;;;;;;;;;5091961;28;20028;-54
2023/11/23 04:29:11;;;;;;;12.27;8.95;;;6.70;99.90;;;;;;5092057;28;20074;-54
2023/11/23 04:31:37;;;;;;;11.30;8.95;;;6.70;99.90;;;;;;5056038;28;20028;-54
2023/11/23 04:34:03;;;;;;;12.38;9.63;;;6.70;99.90;;;;;;5092240;28;20032;-54
2023/11/23 04:36:28;;;;;;;13.75;9.48;;;6.60;99.90;;;;;;5091844;28;20028;-54
2023/11/23 04:38:55;;;;;;;11.88;9.55;;;6.50;99.90;;;;;;5039778;28;20036;-54
2023/11/23 04:41:20;;;;;;;13.02;9.65;;;6.60;99.90;;;;;;5091605;28;20086;-54
2023/11/23 04:43:46;;;;;;;13.55;9.23;;;6.60;99.90;;;;;;5039376;28;20056;-54
2023/11/23 04:46:12;;;;;;;9.55;7.28;;;6.50;99.90;;;;;;5091241;28;20089;-54
2023/11/23 04:48:38;;;;;;;10.88;8.85;;;6.00;99.90;;;;;;5099773;28;20023;-54
2023/11/23 04:51:04;;;;;;;12.05;8.80;;;5.80;99.90;;;;;;5080058;28;20042;-55
2023/11/23 04:53:30;;;;;;;12.35;9.68;;;5.90;99.90;;;;;;5116164;28;20463;-54
2023/11/23 04:55:57;;;;;;;14.40;9.63;;;5.90;99.90;;;;;;5116399;28;20023;-54
2023/11/23 04:58:23;;;;;;;12.25;9.02;;;6.00;99.90;;;;;;5116035;28;20032;-54
2023/11/23 05:00:49;;;;;;;11.45;9.00;;;6.00;99.90;;;;;;5053857;28;20127;-54
2023/11/23 05:03:14;;;;;;;13.30;9.85;;;6.20;99.90;;;;;;5095689;28;20032;-54
2023/11/23 05:05:40;;;;;;;12.00;9.15;;;6.20;99.90;;;;;;5100687;28;20545;-54
2023/11/23 05:08:06;;;;;;;11.13;8.43;;;6.30;99.90;;;;;;5062993;28;20039;-55
2023/11/23 05:10:32;;;;;;;11.20;9.68;;;6.20;99.90;;;;;;5111842;28;20103;-55
2023/11/23 05:12:59;;;;;;;12.73;8.85;;;6.10;99.90;;;;;;5095342;28;20107;-55
2023/11/23 05:15:25;;;;;;;11.35;8.75;;;6.00;99.90;;;;;;5095123;28;20024;-55
2023/11/23 05:17:50;;;;;;;11.85;8.20;;;6.00;99.90;;;;;;5106795;28;20093;-55
2023/11/23 05:20:16;;;;;;;11.25;8.48;;;5.90;99.90;;;;;;5115460;28;20043;-54
2023/11/23 05:22:43;;;;;;;10.90;8.50;;;6.00;99.90;;;;;;5066516;28;20410;-56
2023/11/23 05:25:09;;;;;;;12.32;9.38;;;5.90;99.90;;;;;;5095464;28;20127;-56
2023/11/23 05:27:35;;;;;;;16.38;10.30;;;6.00;99.90;;;;;;5107188;28;20507;-55
2023/11/23 05:30:01;;;;;;;11.20;8.85;;;6.10;99.90;;;;;;5105456;28;20111;-55
2023/11/23 05:32:26;;;;;;;13.23;10.27;;;6.30;99.90;;;;;;5061501;28;20040;-55
2023/11/23 05:34:52;;;;;;;10.05;7.75;;;6.40;99.90;;;;;;5060786;28;20032;-55
2023/11/23 05:37:18;;;;;;;12.68;8.60;;;6.30;99.90;;;;;;5059382;28;20056;-55
2023/11/23 05:39:44;;;;;;;12.68;9.05;;;6.10;99.90;;;;;;5052063;28;20044;-55
2023/11/23 05:42:09;;;;;;;14.05;9.38;;;6.10;99.90;;;;;;5057133;28;20036;-55
2023/11/23 05:44:36;;;;;;;13.63;8.35;;;6.20;99.90;;;;;;5061298;28;20040;-55
2023/11/23 05:47:02;;;;;;;11.68;8.95;;;6.10;99.90;;;;;;5060562;28;20064;-55
2023/11/23 05:49:27;;;;;;;11.85;8.80;;;6.20;99.90;;;;;;5028813;28;20489;-55
2023/11/23 05:51:54;;;;;;;10.35;8.27;;;6.20;99.90;;;;;;5054534;28;20111;-55
2023/11/23 05:54:20;;;;;;;12.18;9.60;;;5.90;99.90;;;;;;5051790;28;20029;-55
2023/11/23 05:56:46;;;;;;;13.10;10.00;;;5.90;99.90;;;;;;5035071;28;20670;-55
2023/11/23 05:59:12;;;;;;;17.23;12.13;;;6.10;99.90;;;;;;5054190;28;20154;-55
2023/11/23 06:01:37;;;;;;;14.35;9.50;;;6.10;99.90;;;;;;5060330;28;20078;-57
2023/11/23 06:04:04;;;;;;;13.52;9.10;;;6.20;99.90;;;;;;5063150;28;20076;-56
2023/11/23 06:06:30;;;;;;;16.83;12.52;;;6.20;99.90;;;;;;5063778;28;20512;-55
2023/11/23 06:08:55;;;;;;;16.20;10.82;;;6.10;99.90;;;;;;5067811;28;20099;-56
2023/11/23 06:11:22;;;;;;;12.48;9.60;;;6.30;99.90;;;;;;5065638;28;20043;-55
2023/11/23 06:13:48;;;;;;;13.60;10.57;;;6.30;99.90;;;;;;5106368;28;20047;-56
2023/11/23 06:16:14;;;;;;;11.70;9.00;;;5.90;99.90;;;;;;5111031;28;20383;-55
2023/11/23 06:18:40;;;;;;;13.18;9.13;;;5.60;99.90;;;;;;5061353;28;20433;-55
2023/11/23 06:21:06;;;;;;;10.32;7.63;;;5.40;99.90;;;;;;5104242;28;20028;-56
2023/11/23 06:23:32;;;;;;;12.23;9.32;;;5.40;99.90;;;;;;5051649;28;20066;-55
2023/11/23 06:25:58;;;;;;;14.02;8.80;;;5.50;99.90;;;;;;5067477;28;20444;-55
2023/11/23 06:28:24;;;;;;;13.45;9.77;;;5.40;99.90;;;;;;5103922;28;20380;-56
2023/11/23 06:30:50;;;;;;;12.85;10.73;;;5.40;99.90;;;;;;5107360;28;20089;-54
2023/11/23 06:33:16;;;;;;;16.02;11.02;;;5.70;99.90;;;;;;5114354;28;20024;-53
2023/11/23 06:35:43;;;;;;;14.13;11.15;;;5.90;99.90;;;;;;5114101;28;20093;-53
2023/11/23 06:38:08;;;;;;;25.85;22.13;;;6.00;99.90;;;;;;5113853;28;20027;-54
2023/11/23 06:40:35;;;;;;;17.13;13.95;;;;;;;;;;5051307;28;20051;-54
2023/11/23 06:43:07;;;;;;;13.75;10.55;;;6.20;99.90;;;;;;5093081;28;20067;-54
2023/11/23 06:45:32;;;;;;;17.08;12.00;;;6.30;99.90;;;;;;5093441;28;20031;-55
2023/11/23 06:47:58;;;;;;;17.73;13.32;;;6.40;99.90;;;;;;5057847;28;20028;-55
2023/11/23 06:50:24;;;;;;;17.15;11.52;;;6.40;99.90;;;;;;5093811;28;20026;-54
2023/11/23 06:52:50;;;;;;;15.80;10.18;;;6.20;99.90;;;;;;5093647;28;20069;-55
2023/11/23 06:55:16;;;;;;;13.05;10.23;;;6.10;99.90;;;;;;5093154;28;20165;-56
2023/11/23 06:57:46;;;;;;;20.23;12.40;;;6.00;99.90;;;;;;5093415;28;20095;-54
2023/11/23 07:00:24;;;;;;;16.17;12.07;;;6.00;99.90;;;;;;5106813;28;20530;-54
2023/11/23 07:02:57;;;;;;;15.10;11.25;;;6.20;99.90;;;;;;5060870;28;20501;-55
2023/11/23 07:05:24;;;;;;;16.50;11.07;;;6.50;99.90;;;;;;5113610;28;20028;-54
2023/11/23 07:07:51;;;;;;;13.82;9.48;;;6.50;99.90;;;;;;5113652;28;20027;-54
2023/11/23 07:10:18;;;;;;;13.30;9.43;;;6.30;99.90;;;;;;5077239;28;20067;-54
2023/11/23 07:12:45;;;;;;;12.75;9.43;;;6.30;99.90;;;;;;5113290;28;20020;-54
2023/11/23 07:15:14;;;;;;;11.80;9.23;;;6.10;99.90;;;;;;5093672;28;20047;-55
2023/11/23 07:17:41;;;;;;;15.07;10.27;;;5.90;99.90;;;;;;5113468;28;20107;-55
2023/11/23 07:20:11;;;;;;;15.25;11.23;;;6.10;99.90;;;;;;5113214;28;20053;-54
2023/11/23 07:22:37;;;;;;;13.65;10.93;;;6.40;99.90;;;;;;5113242;28;20414;-54
2023/11/23 07:25:04;;;;;;;14.95;11.13;;;6.60;99.90;;;;;;5113551;28;20028;-54
2023/11/23 07:27:29;;;;;;;13.02;10.40;;;6.80;99.90;;;;;;5113156;28;20097;-54
2023/11/23 07:29:55;;;;;;;16.38;12.13;;;;;;;;;;5113018;28;20467;-55
2023/11/23 07:32:21;;;;;;;15.15;12.27;;;7.30;99.90;;;;;;5113096;28;20111;-54
2023/11/23 07:34:47;;;;;;;16.45;11.40;;;7.30;99.90;;;;;;5076828;28;20110;-54
2023/11/23 07:37:14;;;;;;;15.30;11.10;;;7.20;99.90;;;;;;5112973;28;20035;-54
2023/11/23 07:39:40;;;;;;;12.68;9.68;;;7.10;99.90;;;;;;5076885;28;20046;-55
2023/11/23 07:42:06;;;;;;;13.00;10.32;;;;;;;;;;5110889;28;20387;-55
2023/11/23 07:44:33;;;;;;;14.10;9.95;;;;;;;;;;5096269;28;20097;-54
2023/11/23 07:46:59;;;;;;;14.90;9.98;;;6.50;99.90;;;;;;5092870;28;20447;-54
2023/11/23 07:49:25;;;;;;;15.27;9.27;;;;;;;;;;5092292;28;20490;-55
2023/11/23 07:51:55;;;;;;;16.63;11.25;;;;;;;;;;5093259;28;20024;-55
2023/11/23 07:54:21;;;;;;;19.50;14.52;;;7.10;99.90;;;;;;5112461;28;20035;-55
2023/11/23 07:56:46;;;;;;;19.63;15.15;;;7.30;99.90;;;;;;5093570;28;20049;-54
2023/11/23 07:59:12;;;;;;;19.75;14.45;;;7.40;99.90;;;;;;5112541;28;20118;-55
2023/11/23 08:01:38;;;;;;;13.35;10.50;;;7.50;99.90;;;;;;5109133;28;20036;-54
2023/11/23 08:04:04;;;;;;;13.30;10.75;;;7.10;99.90;;;;;;5112569;28;20028;-55
2023/11/23 08:06:29;;;;;;;14.30;10.75;;;7.00;99.90;;;;;;5109235;28;20073;-54
2023/11/23 08:08:56;;;;;;;13.40;10.32;;;6.90;99.90;;;;;;5065169;28;20085;-55
2023/11/23 08:11:22;;;;;;;15.40;10.10;;;7.00;99.90;;;;;;5069038;28;20429;-56
2023/11/23 08:13:49;;;;;;;14.48;9.80;;;6.90;99.90;;;;;;5098911;28;20043;-55
2023/11/23 08:16:15;;;;;;;13.55;10.07;;;6.80;99.90;;;;;;5100185;28;20398;-54
2023/11/23 08:18:41;;;;;;;13.80;9.73;;;6.90;99.90;;;;;;5063446;28;20044;-55
2023/11/23 08:21:07;;;;;;;16.58;10.63;;;7.00;99.90;;;;;;5101059;28;20028;-54
2023/11/23 08:23:33;;;;;;;12.23;9.35;;;7.10;99.90;;;;;;5100817;28;20106;-57
2023/11/23 08:26:00;;;;;;;14.63;10.43;;;7.20;99.90;;;;;;5101468;28;20039;-54
2023/11/23 08:28:26;;;;;;;12.77;9.10;;;7.40;99.90;;;;;;5072460;28;20716;-55
2023/11/23 08:30:52;;;;;;;14.32;9.20;;;7.50;99.90;;;;;;5113042;28;20035;-54
2023/11/23 08:33:18;;;;;;;14.05;10.52;;;7.50;99.90;;;;;;5111820;28;20055;-54
2023/11/23 08:35:44;;;;;;;12.43;9.73;;;7.70;99.90;;;;;;5059457;28;20034;-55
2023/11/23 08:38:13;;;;;;;15.75;10.80;;;7.70;99.90;;;;;;5059898;28;20032;-54
2023/11/23 08:40:39;;;;;;;14.35;10.25;;;7.60;99.90;;;;;;5112065;28;20031;-55
2023/11/23 08:43:06;;;;;;;16.95;10.32;;;7.60;99.90;;;;;;5112279;28;20127;-55
2023/11/23 08:45:32;;;;;;;16.58;9.70;;;7.70;99.90;;;;;;5112298;28;20089;-55
2023/11/23 08:47:57;;;;;;;14.15;9.20;;;7.70;99.90;;;;;;5112162;28;20028;-55
2023/11/23 08:50:23;;;;;;;15.90;10.75;;;7.60;99.90;;;;;;5075844;28;20027;-54
2023/11/23 08:52:49;;;;;;;13.38;10.48;;;7.60;99.90;;;;;;5112121;28;20471;-54
2023/11/23 08:55:15;;;;;;;15.00;10.40;;;7.60;99.90;;;;;;5075823;28;20042;-55
2023/11/23 08:57:40;;;;;;;13.70;10.80;;;7.80;99.90;;;;;;5092860;28;20028;-54
2023/11/23 09:00:10;;;;;;;14.77;9.90;;;7.90;99.90;;;;;;5091937;28;20119;-55
2023/11/23 09:02:39;;;;;;;15.65;10.23;;;7.80;99.90;;;;;;5091991;28;20587;-55
2023/11/23 09:05:09;;;;;;;13.63;9.82;;;8.00;99.90;;;;;;5091845;28;20024;-55
2023/11/23 09:07:35;;;;;;;13.38;10.32;;;8.20;99.90;;;;;;5091564;28;20035;-55
2023/11/23 09:10:00;;;;;;;13.23;9.55;;;8.20;99.90;;;;;;5096706;28;20395;-55
2023/11/23 09:12:32;;;;;;;12.18;9.10;;;8.10;99.90;;;;;;5093910;28;20048;-55
2023/11/23 09:14:58;;;;;;;15.97;10.17;;;8.30;99.90;;;;;;5091591;28;20058;-55
2023/11/23 09:17:23;;;;;;;11.68;8.88;;;8.40;99.90;;;;;;5090894;28;20020;-55
2023/11/23 09:19:49;;;;;;;13.40;9.63;;;;;;;;;;5096219;28;20077;-55
2023/11/23 09:22:15;;;;;;;11.95;8.65;;;8.60;99.90;;;;;;5057237;28;20047;-55
2023/11/23 09:24:41;;;;;;;14.80;8.77;;;8.70;99.90;;;;;;5094849;28;20433;-55
2023/11/23 09:27:07;;;;;;;11.65;8.05;;;8.70;99.90;;;;;;5047127;28;20066;-55
2023/11/23 09:29:33;;;;;;;42.05;28.27;;;8.50;99.90;;;;;;5095103;28;20035;-55
2023/11/23 09:31:58;;;;;;;23.70;16.13;;;8.80;99.90;;;;;;5103315;28;20024;-55
2023/11/23 09:34:24;;;;;;;23.70;13.57;;;9.10;99.90;;;;;;5017536;28;20039;-55
2023/11/23 09:36:50;;;;;;;10.55;8.57;;;9.10;99.90;;;;;;5096984;28;20059;-56
2023/11/23 09:39:17;;;;;;;11.95;8.75;;;9.30;99.90;;;;;;5100263;28;20031;-55
2023/11/23 09:41:44;;;;;;;12.13;9.00;;;9.60;99.90;;;;;;5101734;28;20399;-55
2023/11/23 09:44:10;;;;;;;28.58;18.55;;;9.80;99.90;;;;;;5112273;28;20082;-56
2023/11/23 09:46:39;;;;;;;60.78;35.30;;;9.90;99.90;;;;;;5099965;28;20554;-56
2023/11/23 09:49:07;;;;;;;161.85;91.18;;;9.40;99.90;;;;;;5095880;28;20489;-56
2023/11/23 09:51:35;;;;;;;26.60;16.23;;;9.50;99.90;;;;;;5070265;28;20046;-56
2023/11/23 09:54:03;;;;;;;59.53;41.38;;;9.10;99.90;;;;;;5097068;28;20028;-56
2023/11/23 09:56:31;;;;;;;20.25;15.40;;;9.30;99.90;;;;;;5100919;28;20494;-55
2023/11/23 09:58:56;;;;;;;48.10;27.75;;;9.40;99.90;;;;;;5105393;28;20032;-56
2023/11/23 10:01:26;;;;;;;33.53;19.85;;;9.20;99.90;;;;;;5102351;28;20040;-56
2023/11/23 10:03:54;;;;;;;20.85;14.57;;;9.30;99.90;;;;;;5093911;28;20024;-55
2023/11/23 10:06:20;;;;;;;17.55;10.65;;;9.50;99.90;;;;;;5096533;28;20039;-56
2023/11/23 10:08:46;;;;;;;120.55;68.53;;;9.50;99.90;;;;;;5095976;28;20023;-56
2023/11/23 10:11:13;;;;;;;13.38;10.45;;;9.70;99.90;;;;;;5098893;28;20089;-56
2023/11/23 10:13:39;;;;;;;16.90;11.95;;;9.90;99.90;;;;;;5098712;28;20028;-55
2023/11/23 10:16:05;;;;;;;21.58;14.40;;;10.10;99.90;;;;;;5046351;28;20036;-55
2023/11/23 10:18:38;;;;;;;18.60;12.27;;;9.50;99.90;;;;;;5096474;28;20039;-55
2023/11/23 10:21:04;;;;;;;23.48;15.77;;;9.60;99.90;;;;;;5096181;28;20040;-56
2023/11/23 10:23:29;;;;;;;33.65;23.40;;;9.80;99.90;;;;;;5067201;28;20552;-55
2023/11/23 10:25:55;;;;;;;15.60;11.93;;;9.90;99.90;;;;;;5048269;28;20051;-55
2023/11/23 10:28:22;;;;;;;13.65;9.88;;;;;;;;;;5096819;28;20055;-55
2023/11/23 10:30:49;;;;;;;27.23;19.42;;;10.60;99.90;;;;;;5100041;28;20035;-55
2023/11/23 10:33:16;;;;;;;15.68;12.07;;;9.90;99.90;;;;;;5099116;28;20024;-56
2023/11/23 10:35:45;;;;;;;13.73;10.65;;;9.80;99.90;;;;;;5102110;28;20015;-55
2023/11/23 10:38:12;;;;;;;17.63;12.52;;;;;;;;;;5098917;28;20028;-56
2023/11/23 10:40:39;;;;;;;12.55;10.23;;;10.20;99.90;;;;;;5095574;28;20040;-56
2023/11/23 10:43:09;;;;;;;13.27;10.88;;;;;;;;;;5080004;28;20729;-56
2023/11/23 10:45:39;;;;;;;16.33;10.85;;;10.30;99.90;;;;;;5093509;28;20032;-56
2023/11/23 10:48:05;;;;;;;15.05;11.38;;;10.30;99.90;;;;;;5095710;28;20050;-56
2023/11/23 10:50:35;;;;;;;17.05;13.52;;;10.50;99.90;;;;;;5094709;28;20476;-55
2023/11/23 10:53:01;;;;;;;23.10;13.93;;;10.60;99.80;;;;;;5099535;28;20106;-56
2023/11/23 10:55:27;;;;;;;18.25;13.43;;;10.60;99.90;;;;;;5102233;28;20142;-56
2023/11/23 10:58:04;;;;;;;18.08;12.18;;;10.60;99.90;;;;;;5097589;28;20081;-55
2023/11/23 11:00:30;;;;;;;17.58;12.95;;;10.90;99.90;;;;;;5094406;28;20490;-55
2023/11/23 11:03:00;;;;;;;20.02;13.80;;;11.00;99.30;;;;;;5097715;28;20023;-59
2023/11/23 11:05:53;;;;;;;18.50;13.35;;;11.20;99.40;;;;;;5104180;28;20036;-57
2023/11/23 11:08:20;;;;;;;20.38;13.50;;;11.30;98.90;;;;;;5094842;28;20093;-58
2023/11/23 11:10:50;;;;;;;16.60;12.10;;;11.30;98.70;;;;;;5097497;28;20032;-56
2023/11/23 11:13:26;;;;;;;16.25;12.55;;;11.40;99.00;;;;;;5098084;28;20463;-56
2023/11/23 11:16:03;;;;;;;15.95;12.55;;;;;;;;;;5096449;28;20169;-58
2023/11/23 11:18:29;;;;;;;18.38;12.15;;;10.90;99.10;;;;;;5097614;28;20495;-57
2023/11/23 11:21:09;;;;;;;17.45;13.32;;;11.00;99.80;;;;;;5093036;28;20507;-57
2023/11/23 11:23:46;;;;;;;21.25;14.68;;;10.90;99.90;;;;;;5099049;28;20059;-57
2023/11/23 11:26:19;;;;;;;19.17;14.77;;;10.80;99.90;;;;;;5091920;28;20054;-58
2023/11/23 11:28:56;;;;;;;18.70;14.55;;;10.90;99.90;;;;;;5096703;28;21547;-57
2023/11/23 11:31:36;;;;;;;17.60;14.05;;;11.00;99.90;;;;;;5099360;28;20027;-57
2023/11/23 11:34:03;;;;;;;18.63;15.27;;;11.40;99.90;;;;;;5100150;28;20035;-56
2023/11/23 11:36:31;;;;;;;23.38;16.85;;;11.80;99.90;;;;;;5096623;28;20028;-56
2023/11/23 11:38:59;;;;;;;39.20;24.20;;;11.80;99.00;;;;;;5098046;28;20119;-56
2023/11/23 11:41:31;;;;;;;35.10;23.73;;;12.00;99.90;;;;;;5094146;28;20051;-57
2023/11/23 11:43:58;;;;;;;29.48;21.48;;;11.90;98.70;;;;;;5096425;28;20047;-57
2023/11/23 11:46:23;;;;;;;26.20;18.92;;;12.20;98.90;;;;;;5094473;28;20028;-56
2023/11/23 11:48:49;;;;;;;54.58;35.40;;;12.20;99.40;;;;;;5067704;28;20483;-57
2023/11/23 11:51:15;;;;;;;25.15;19.13;;;12.00;98.40;;;;;;5104579;28;20379;-56
2023/11/23 11:53:43;;;;;;;29.00;18.55;;;12.10;97.90;;;;;;5047755;28;20133;-57
2023/11/23 11:56:11;;;;;;;22.02;17.45;;;12.10;97.60;;;;;;5095031;28;20035;-57
2023/11/23 11:58:38;;;;;;;21.63;17.02;;;12.60;98.30;;;;;;5092618;28;20046;-56
2023/11/23 12:01:06;;;;;;;21.77;16.40;;;12.90;98.00;;;;;;5097199;28;20044;-57
2023/11/23 12:03:32;;;;;;;21.40;16.25;;;13.20;97.10;;;;;;5054579;28;20544;-57
2023/11/23 12:05:58;;;;;;;19.65;16.08;;;13.20;96.10;;;;;;5098148;28;20024;-57
2023/11/23 12:08:31;;;;;;;21.52;16.02;;;12.90;95.60;;;;;;5097414;28;20031;-57
2023/11/23 12:10:56;;;;;;;24.55;17.20;;;13.10;95.60;;;;;;5092322;28;20491;-56
2023/11/23 12:13:25;;;;;;;20.00;16.67;;;12.70;95.70;;;;;;5105177;28;20053;-57
2023/11/23 12:15:53;;;;;;;23.50;17.63;;;13.20;96.70;;;;;;5102657;28;20035;-56
2023/11/23 12:18:29;;;;;;;20.58;16.10;;;13.30;95.70;;;;;;5093893;28;20020;-57
2023/11/23 12:20:55;;;;;;;21.02;16.75;;;13.00;94.70;;;;;;5098037;28;20036;-57
2023/11/23 12:23:21;;;;;;;25.92;19.48;;;13.00;94.90;;;;;;5100210;28;20390;-57
2023/11/23 12:25:48;;;;;;;21.80;17.30;;;13.00;94.90;;;;;;5093536;28;20032;-57
2023/11/23 12:28:17;;;;;;;24.02;18.60;;;12.40;95.10;;;;;;5099775;28;20563;-57
2023/11/23 12:30:45;;;;;;;27.42;19.50;;;12.30;95.30;;;;;;5092399;28;20032;-56
2023/11/23 12:33:12;;;;;;;19.70;16.83;;;12.70;95.80;;;;;;5051000;28;20039;-58
2023/11/23 12:35:43;;;;;;;20.23;15.85;;;;;;;;;;5094249;28;20089;-57
2023/11/23 12:38:09;;;;;;;20.25;15.80;;;;;;;;;;5095151;28;20039;-57
2023/11/23 12:40:35;;;;;;;21.00;17.02;;;;;;;;;;5047473;28;20040;-57
2023/11/23 12:43:02;;;;;;;22.02;17.08;;;12.20;99.90;;;;;;5097913;28;20090;-56
2023/11/23 12:45:28;;;;;;;20.50;15.57;;;11.60;96.00;;;;;;5102068;28;20093;-57